Welland, Canada
Current Conditions -  °F | °C
As of 9:00 AM on Monday 22 Dec 2014 (Local Time) from CYSN Reporting Station
Broken Clouds Broken Clouds  
Wind Chill: 21°   Ceiling: 24000
Heat Index: 28°   Visibility: 12mi
Dew Point: 25°   Wind: 7mph
Humidity: 86%   Direction: 80°E
Pressure: 30.2"   Gusts: NA
Location:  42.99°N, 79.24°W
Report Text: CYSN 221400Z 08006KT 12SM FEW020 SCT100 BKN240 M02/M04 A3020 RMK SC2AC2CI3 SLP231
Loading
Personal Weather Stations






























Interactive Weather Map New forecast layout! Learn more

10-Day Weather Forecast

Advertisements
Track Severe Weather on mobile